sensor_id;sensor_type;location;lat;lon;timestamp;temperature;humidity
55828;DHT22;41758;51.992;5.890;2022-07-18T00:01:31;25.20;47.00
55828;DHT22;41758;51.992;5.890;2022-07-18T00:03:58;25.20;47.80
55828;DHT22;41758;51.992;5.890;2022-07-18T00:06:24;25.20;48.00
55828;DHT22;41758;51.992;5.890;2022-07-18T00:08:50;25.20;49.00
55828;DHT22;41758;51.992;5.890;2022-07-18T00:11:16;25.20;48.40
55828;DHT22;41758;51.992;5.890;2022-07-18T00:13:41;25.20;47.20
55828;DHT22;41758;51.992;5.890;2022-07-18T00:16:08;25.10;46.60
55828;DHT22;41758;51.992;5.890;2022-07-18T00:18:34;25.10;47.10
55828;DHT22;41758;51.992;5.890;2022-07-18T00:21:00;25.10;48.00
55828;DHT22;41758;51.992;5.890;2022-07-18T00:23:26;25.10;48.80
55828;DHT22;41758;51.992;5.890;2022-07-18T00:25:53;25.10;49.70
55828;DHT22;41758;51.992;5.890;2022-07-18T00:28:21;25.10;49.70
55828;DHT22;41758;51.992;5.890;2022-07-18T00:30:49;25.10;49.20
55828;DHT22;41758;51.992;5.890;2022-07-18T00:33:16;25.10;48.30
55828;DHT22;41758;51.992;5.890;2022-07-18T00:35:44;25.10;48.80
55828;DHT22;41758;51.992;5.890;2022-07-18T00:38:10;25.00;49.60
55828;DHT22;41758;51.992;5.890;2022-07-18T00:40:37;25.10;49.20
55828;DHT22;41758;51.992;5.890;2022-07-18T00:43:05;25.10;48.90
55828;DHT22;41758;51.992;5.890;2022-07-18T00:45:32;25.10;49.00
55828;DHT22;41758;51.992;5.890;2022-07-18T00:48:07;25.00;48.50
55828;DHT22;41758;51.992;5.890;2022-07-18T00:50:34;25.00;49.00
55828;DHT22;41758;51.992;5.890;2022-07-18T00:53:00;25.00;49.60
55828;DHT22;41758;51.992;5.890;2022-07-18T00:55:26;25.00;49.60
55828;DHT22;41758;51.992;5.890;2022-07-18T00:57:56;25.00;49.80
55828;DHT22;41758;51.992;5.890;2022-07-18T01:00:23;25.00;49.40
55828;DHT22;41758;51.992;5.890;2022-07-18T01:03:08;25.00;49.60
55828;DHT22;41758;51.992;5.890;2022-07-18T01:05:35;25.00;50.10
55828;DHT22;41758;51.992;5.890;2022-07-18T01:08:04;25.00;49.40
55828;DHT22;41758;51.992;5.890;2022-07-18T01:10:32;25.00;49.40
55828;DHT22;41758;51.992;5.890;2022-07-18T01:13:00;25.00;49.70
55828;DHT22;41758;51.992;5.890;2022-07-18T01:15:27;24.90;48.80
55828;DHT22;41758;51.992;5.890;2022-07-18T01:17:54;24.90;47.40
55828;DHT22;41758;51.992;5.890;2022-07-18T01:20:20;24.90;47.10
55828;DHT22;41758;51.992;5.890;2022-07-18T01:22:46;24.90;48.10
55828;DHT22;41758;51.992;5.890;2022-07-18T01:25:13;24.90;49.70
55828;DHT22;41758;51.992;5.890;2022-07-18T01:27:42;24.90;50.70
55828;DHT22;41758;51.992;5.890;2022-07-18T01:30:08;24.90;50.40
55828;DHT22;41758;51.992;5.890;2022-07-18T01:32:34;24.90;50.10
55828;DHT22;41758;51.992;5.890;2022-07-18T01:35:00;24.90;50.00
55828;DHT22;41758;51.992;5.890;2022-07-18T01:37:26;24.90;49.80
55828;DHT22;41758;51.992;5.890;2022-07-18T01:39:52;24.90;50.40
55828;DHT22;41758;51.992;5.890;2022-07-18T01:42:18;24.90;50.70
55828;DHT22;41758;51.992;5.890;2022-07-18T01:44:44;24.90;50.70
55828;DHT22;41758;51.992;5.890;2022-07-18T01:47:11;24.90;50.50
55828;DHT22;41758;51.992;5.890;2022-07-18T01:49:37;24.90;50.40
55828;DHT22;41758;51.992;5.890;2022-07-18T01:52:03;24.90;50.80
55828;DHT22;41758;51.992;5.890;2022-07-18T01:54:31;24.90;50.60
55828;DHT22;41758;51.992;5.890;2022-07-18T01:56:59;24.90;50.60
55828;DHT22;41758;51.992;5.890;2022-07-18T01:59:25;24.90;50.50
55828;DHT22;41758;51.992;5.890;2022-07-18T02:01:51;24.90;50.40
55828;DHT22;41758;51.992;5.890;2022-07-18T02:04:18;24.80;50.50
55828;DHT22;41758;51.992;5.890;2022-07-18T02:06:44;24.80;50.50
55828;DHT22;41758;51.992;5.890;2022-07-18T02:09:10;24.80;50.90
55828;DHT22;41758;51.992;5.890;2022-07-18T02:11:36;24.80;51.40
55828;DHT22;41758;51.992;5.890;2022-07-18T02:14:03;24.90;51.50
55828;DHT22;41758;51.992;5.890;2022-07-18T02:16:29;24.80;51.20
55828;DHT22;41758;51.992;5.890;2022-07-18T02:18:55;24.80;51.10
55828;DHT22;41758;51.992;5.890;2022-07-18T02:21:21;24.80;51.50
55828;DHT22;41758;51.992;5.890;2022-07-18T02:23:47;24.80;51.60
55828;DHT22;41758;51.992;5.890;2022-07-18T02:26:13;24.80;51.60
55828;DHT22;41758;51.992;5.890;2022-07-18T02:28:39;24.80;51.20
55828;DHT22;41758;51.992;5.890;2022-07-18T02:31:05;24.80;50.90
55828;DHT22;41758;51.992;5.890;2022-07-18T02:33:32;24.70;51.10
55828;DHT22;41758;51.992;5.890;2022-07-18T02:35:58;24.80;50.70
55828;DHT22;41758;51.992;5.890;2022-07-18T02:38:24;24.70;49.80
55828;DHT22;41758;51.992;5.890;2022-07-18T02:40:49;24.70;50.20
55828;DHT22;41758;51.992;5.890;2022-07-18T02:43:15;24.70;50.10
55828;DHT22;41758;51.992;5.890;2022-07-18T02:45:41;24.70;49.70
55828;DHT22;41758;51.992;5.890;2022-07-18T02:48:06;24.70;49.80
55828;DHT22;41758;51.992;5.890;2022-07-18T02:50:32;24.70;49.90
55828;DHT22;41758;51.992;5.890;2022-07-18T02:52:58;24.70;50.40
55828;DHT22;41758;51.992;5.890;2022-07-18T02:55:23;24.60;49.80
55828;DHT22;41758;51.992;5.890;2022-07-18T02:57:50;24.60;48.80
55828;DHT22;41758;51.992;5.890;2022-07-18T03:00:17;24.60;47.20
55828;DHT22;41758;51.992;5.890;2022-07-18T03:02:44;24.50;46.70
55828;DHT22;41758;51.992;5.890;2022-07-18T03:05:11;24.50;46.70
55828;DHT22;41758;51.992;5.890;2022-07-18T03:07:37;24.50;48.00
55828;DHT22;41758;51.992;5.890;2022-07-18T03:10:04;24.50;49.70
55828;DHT22;41758;51.992;5.890;2022-07-18T03:12:30;24.60;50.20
55828;DHT22;41758;51.992;5.890;2022-07-18T03:14:56;24.50;50.20
55828;DHT22;41758;51.992;5.890;2022-07-18T03:17:21;24.40;49.80
55828;DHT22;41758;51.992;5.890;2022-07-18T03:19:47;24.40;48.70
55828;DHT22;41758;51.992;5.890;2022-07-18T03:22:12;24.40;48.10
55828;DHT22;41758;51.992;5.890;2022-07-18T03:24:38;24.40;47.40
55828;DHT22;41758;51.992;5.890;2022-07-18T03:27:07;24.30;47.00
55828;DHT22;41758;51.992;5.890;2022-07-18T03:29:33;24.40;47.70
55828;DHT22;41758;51.992;5.890;2022-07-18T03:31:58;24.40;48.10
55828;DHT22;41758;51.992;5.890;2022-07-18T03:34:24;24.30;48.40
55828;DHT22;41758;51.992;5.890;2022-07-18T03:36:49;24.30;48.60
55828;DHT22;41758;51.992;5.890;2022-07-18T03:39:15;24.40;48.40
55828;DHT22;41758;51.992;5.890;2022-07-18T03:41:41;24.30;48.10
55828;DHT22;41758;51.992;5.890;2022-07-18T03:44:07;24.30;47.60
55828;DHT22;41758;51.992;5.890;2022-07-18T03:46:32;24.30;47.10
55828;DHT22;41758;51.992;5.890;2022-07-18T03:48:58;24.30;47.30
55828;DHT22;41758;51.992;5.890;2022-07-18T03:51:24;24.30;47.90
55828;DHT22;41758;51.992;5.890;2022-07-18T03:53:50;24.30;48.70
55828;DHT22;41758;51.992;5.890;2022-07-18T03:56:16;24.30;48.00
55828;DHT22;41758;51.992;5.890;2022-07-18T03:58:42;24.30;47.90
55828;DHT22;41758;51.992;5.890;2022-07-18T04:01:08;24.30;48.20
55828;DHT22;41758;51.992;5.890;2022-07-18T04:03:34;24.30;48.00
55828;DHT22;41758;51.992;5.890;2022-07-18T04:06:00;24.30;47.40
55828;DHT22;41758;51.992;5.890;2022-07-18T04:08:26;24.30;46.70
55828;DHT22;41758;51.992;5.890;2022-07-18T04:10:52;24.20;46.70
55828;DHT22;41758;51.992;5.890;2022-07-18T04:13:18;24.20;47.50
55828;DHT22;41758;51.992;5.890;2022-07-18T04:15:44;24.20;48.80
55828;DHT22;41758;51.992;5.890;2022-07-18T04:18:09;24.30;50.20
55828;DHT22;41758;51.992;5.890;2022-07-18T04:20:36;24.30;50.50
55828;DHT22;41758;51.992;5.890;2022-07-18T04:23:05;24.30;50.50
55828;DHT22;41758;51.992;5.890;2022-07-18T04:25:38;24.30;50.60
55828;DHT22;41758;51.992;5.890;2022-07-18T04:28:04;24.30;50.80
55828;DHT22;41758;51.992;5.890;2022-07-18T04:30:34;24.30;52.50
55828;DHT22;41758;51.992;5.890;2022-07-18T04:33:04;24.40;52.50
55828;DHT22;41758;51.992;5.890;2022-07-18T04:35:31;24.40;52.30
55828;DHT22;41758;51.992;5.890;2022-07-18T04:37:57;24.30;52.70
55828;DHT22;41758;51.992;5.890;2022-07-18T04:40:23;24.30;52.50
55828;DHT22;41758;51.992;5.890;2022-07-18T04:42:50;24.40;52.50
55828;DHT22;41758;51.992;5.890;2022-07-18T04:45:16;24.30;52.40
55828;DHT22;41758;51.992;5.890;2022-07-18T04:47:48;24.30;52.30
55828;DHT22;41758;51.992;5.890;2022-07-18T04:50:14;24.40;52.20
55828;DHT22;41758;51.992;5.890;2022-07-18T04:52:42;24.30;52.60
55828;DHT22;41758;51.992;5.890;2022-07-18T04:55:10;24.40;52.50
55828;DHT22;41758;51.992;5.890;2022-07-18T04:57:36;24.40;52.30
55828;DHT22;41758;51.992;5.890;2022-07-18T05:00:08;24.40;52.80
55828;DHT22;41758;51.992;5.890;2022-07-18T05:02:34;24.40;52.60
55828;DHT22;41758;51.992;5.890;2022-07-18T05:04:59;24.40;52.90
55828;DHT22;41758;51.992;5.890;2022-07-18T05:07:25;24.40;52.80
55828;DHT22;41758;51.992;5.890;2022-07-18T05:09:51;24.40;52.60
55828;DHT22;41758;51.992;5.890;2022-07-18T05:12:17;24.40;52.80
55828;DHT22;41758;51.992;5.890;2022-07-18T05:14:44;24.40;52.60
55828;DHT22;41758;51.992;5.890;2022-07-18T05:17:10;24.50;52.90
55828;DHT22;41758;51.992;5.890;2022-07-18T05:19:35;24.50;52.40
55828;DHT22;41758;51.992;5.890;2022-07-18T05:22:01;24.40;52.00
55828;DHT22;41758;51.992;5.890;2022-07-18T05:24:27;24.50;51.80
55828;DHT22;41758;51.992;5.890;2022-07-18T05:26:52;24.50;52.20
55828;DHT22;41758;51.992;5.890;2022-07-18T05:29:18;24.50;51.80
55828;DHT22;41758;51.992;5.890;2022-07-18T05:31:46;24.50;51.90
55828;DHT22;41758;51.992;5.890;2022-07-18T05:34:12;24.50;51.30
55828;DHT22;41758;51.992;5.890;2022-07-18T05:36:37;24.50;51.50
55828;DHT22;41758;51.992;5.890;2022-07-18T05:39:03;24.50;52.30
55828;DHT22;41758;51.992;5.890;2022-07-18T05:41:29;24.60;52.10
55828;DHT22;41758;51.992;5.890;2022-07-18T05:43:54;24.60;52.10
55828;DHT22;41758;51.992;5.890;2022-07-18T05:46:20;24.60;52.50
55828;DHT22;41758;51.992;5.890;2022-07-18T05:48:46;24.60;52.50
55828;DHT22;41758;51.992;5.890;2022-07-18T05:51:12;24.60;52.50
55828;DHT22;41758;51.992;5.890;2022-07-18T05:53:37;24.60;52.40
55828;DHT22;41758;51.992;5.890;2022-07-18T05:56:03;24.60;52.40
55828;DHT22;41758;51.992;5.890;2022-07-18T05:58:29;24.60;52.20
55828;DHT22;41758;51.992;5.890;2022-07-18T06:00:55;24.60;52.00
55828;DHT22;41758;51.992;5.890;2022-07-18T06:03:21;24.60;52.10
55828;DHT22;41758;51.992;5.890;2022-07-18T06:05:46;24.60;52.30
55828;DHT22;41758;51.992;5.890;2022-07-18T06:08:12;24.60;52.10
55828;DHT22;41758;51.992;5.890;2022-07-18T06:10:42;24.60;52.10
55828;DHT22;41758;51.992;5.890;2022-07-18T06:13:09;24.60;52.00
55828;DHT22;41758;51.992;5.890;2022-07-18T06:15:35;24.70;52.40
55828;DHT22;41758;51.992;5.890;2022-07-18T06:18:00;24.70;52.80
55828;DHT22;41758;51.992;5.890;2022-07-18T06:20:26;24.70;52.60
55828;DHT22;41758;51.992;5.890;2022-07-18T06:22:52;24.70;52.70
55828;DHT22;41758;51.992;5.890;2022-07-18T06:25:17;24.70;52.70
55828;DHT22;41758;51.992;5.890;2022-07-18T06:27:43;24.80;52.40
55828;DHT22;41758;51.992;5.890;2022-07-18T06:30:10;24.80;52.30
55828;DHT22;41758;51.992;5.890;2022-07-18T06:32:36;24.80;52.00
55828;DHT22;41758;51.992;5.890;2022-07-18T06:35:02;24.80;51.70
55828;DHT22;41758;51.992;5.890;2022-07-18T06:37:28;24.80;52.00
55828;DHT22;41758;51.992;5.890;2022-07-18T06:39:53;24.80;52.00
55828;DHT22;41758;51.992;5.890;2022-07-18T06:42:19;24.80;51.60
55828;DHT22;41758;51.992;5.890;2022-07-18T06:44:45;24.90;51.20
55828;DHT22;41758;51.992;5.890;2022-07-18T06:47:10;24.80;50.80
55828;DHT22;41758;51.992;5.890;2022-07-18T06:49:36;24.90;50.80
55828;DHT22;41758;51.992;5.890;2022-07-18T06:52:02;24.90;50.50
55828;DHT22;41758;51.992;5.890;2022-07-18T06:54:28;24.90;50.10
55828;DHT22;41758;51.992;5.890;2022-07-18T06:56:54;24.90;49.70
55828;DHT22;41758;51.992;5.890;2022-07-18T06:59:21;24.90;49.30
55828;DHT22;41758;51.992;5.890;2022-07-18T07:01:47;24.90;49.40
55828;DHT22;41758;51.992;5.890;2022-07-18T07:04:13;25.00;50.10
55828;DHT22;41758;51.992;5.890;2022-07-18T07:06:38;25.00;51.10
55828;DHT22;41758;51.992;5.890;2022-07-18T07:09:05;25.00;51.40
55828;DHT22;41758;51.992;5.890;2022-07-18T07:11:31;25.00;51.70
55828;DHT22;41758;51.992;5.890;2022-07-18T07:13:56;25.10;51.80
55828;DHT22;41758;51.992;5.890;2022-07-18T07:16:22;25.10;52.60
55828;DHT22;41758;51.992;5.890;2022-07-18T07:18:48;25.10;52.20
55828;DHT22;41758;51.992;5.890;2022-07-18T07:21:14;25.10;52.60
55828;DHT22;41758;51.992;5.890;2022-07-18T07:23:39;25.10;52.10
55828;DHT22;41758;51.992;5.890;2022-07-18T07:26:07;25.20;52.60
55828;DHT22;41758;51.992;5.890;2022-07-18T07:28:33;25.20;53.30
55828;DHT22;41758;51.992;5.890;2022-07-18T07:30:58;25.30;53.30
55828;DHT22;41758;51.992;5.890;2022-07-18T07:33:24;25.20;52.60
55828;DHT22;41758;51.992;5.890;2022-07-18T07:35:50;25.30;53.30
55828;DHT22;41758;51.992;5.890;2022-07-18T07:38:16;25.30;53.20
55828;DHT22;41758;51.992;5.890;2022-07-18T07:40:46;25.30;53.90
55828;DHT22;41758;51.992;5.890;2022-07-18T07:43:14;25.30;53.40
55828;DHT22;41758;51.992;5.890;2022-07-18T07:45:40;25.30;52.40
55828;DHT22;41758;51.992;5.890;2022-07-18T07:48:07;25.30;51.90
55828;DHT22;41758;51.992;5.890;2022-07-18T07:50:32;25.40;52.10
55828;DHT22;41758;51.992;5.890;2022-07-18T07:52:58;25.40;52.30
55828;DHT22;41758;51.992;5.890;2022-07-18T07:55:25;25.40;52.80
55828;DHT22;41758;51.992;5.890;2022-07-18T07:57:51;25.40;50.80
55828;DHT22;41758;51.992;5.890;2022-07-18T08:00:17;25.40;51.60
55828;DHT22;41758;51.992;5.890;2022-07-18T08:03:00;25.50;51.60
55828;DHT22;41758;51.992;5.890;2022-07-18T08:05:27;25.50;50.70
55828;DHT22;41758;51.992;5.890;2022-07-18T08:07:53;25.50;51.50
55828;DHT22;41758;51.992;5.890;2022-07-18T08:10:19;25.50;52.30
55828;DHT22;41758;51.992;5.890;2022-07-18T08:12:45;25.60;52.50
55828;DHT22;41758;51.992;5.890;2022-07-18T08:15:10;25.60;52.40
55828;DHT22;41758;51.992;5.890;2022-07-18T08:17:36;25.60;52.30
55828;DHT22;41758;51.992;5.890;2022-07-18T08:20:02;25.60;51.80
55828;DHT22;41758;51.992;5.890;2022-07-18T08:22:30;25.60;52.30
55828;DHT22;41758;51.992;5.890;2022-07-18T08:25:03;25.70;52.20
55828;DHT22;41758;51.992;5.890;2022-07-18T08:27:28;25.70;51.80
55828;DHT22;41758;51.992;5.890;2022-07-18T08:29:54;25.70;52.20
55828;DHT22;41758;51.992;5.890;2022-07-18T08:32:20;25.80;52.70
55828;DHT22;41758;51.992;5.890;2022-07-18T08:34:46;25.80;53.20
55828;DHT22;41758;51.992;5.890;2022-07-18T08:37:11;25.80;53.70
55828;DHT22;41758;51.992;5.890;2022-07-18T08:39:37;25.80;53.80
55828;DHT22;41758;51.992;5.890;2022-07-18T08:42:03;25.80;50.90
55828;DHT22;41758;51.992;5.890;2022-07-18T08:44:32;25.90;52.60
55828;DHT22;41758;51.992;5.890;2022-07-18T08:47:02;26.00;53.10
55828;DHT22;41758;51.992;5.890;2022-07-18T08:49:28;26.00;53.30
55828;DHT22;41758;51.992;5.890;2022-07-18T08:51:54;26.00;53.30
55828;DHT22;41758;51.992;5.890;2022-07-18T08:54:20;26.10;52.00
55828;DHT22;41758;51.992;5.890;2022-07-18T08:56:46;26.10;49.60
55828;DHT22;41758;51.992;5.890;2022-07-18T08:59:12;26.00;47.80
55828;DHT22;41758;51.992;5.890;2022-07-18T09:01:37;26.10;50.30
55828;DHT22;41758;51.992;5.890;2022-07-18T09:04:03;26.20;50.50
55828;DHT22;41758;51.992;5.890;2022-07-18T09:06:49;26.20;51.30
55828;DHT22;41758;51.992;5.890;2022-07-18T09:09:17;26.30;51.50
55828;DHT22;41758;51.992;5.890;2022-07-18T09:11:53;26.30;51.90
55828;DHT22;41758;51.992;5.890;2022-07-18T09:14:41;26.30;45.20
55828;DHT22;41758;51.992;5.890;2022-07-18T09:17:17;26.30;46.70
55828;DHT22;41758;51.992;5.890;2022-07-18T09:20:13;26.40;49.80
55828;DHT22;41758;51.992;5.890;2022-07-18T09:22:46;26.40;51.00
55828;DHT22;41758;51.992;5.890;2022-07-18T09:25:17;26.40;48.00
55828;DHT22;41758;51.992;5.890;2022-07-18T09:27:47;26.50;49.00
55828;DHT22;41758;51.992;5.890;2022-07-18T09:30:30;26.50;49.80
55828;DHT22;41758;51.992;5.890;2022-07-18T09:35:51;26.60;50.90
55828;DHT22;41758;51.992;5.890;2022-07-18T09:38:27;26.70;50.00
55828;DHT22;41758;51.992;5.890;2022-07-18T09:40:54;26.60;42.10
55828;DHT22;41758;51.992;5.890;2022-07-18T09:43:22;26.80;47.10
55828;DHT22;41758;51.992;5.890;2022-07-18T09:45:53;26.90;47.00
55828;DHT22;41758;51.992;5.890;2022-07-18T09:48:23;26.90;48.70
55828;DHT22;41758;51.992;5.890;2022-07-18T09:50:55;27.00;43.70
55828;DHT22;41758;51.992;5.890;2022-07-18T09:53:23;27.10;40.30
55828;DHT22;41758;51.992;5.890;2022-07-18T09:55:53;27.30;44.60
55828;DHT22;41758;51.992;5.890;2022-07-18T09:58:24;27.40;45.40
55828;DHT22;41758;51.992;5.890;2022-07-18T10:00:51;27.60;47.40
55828;DHT22;41758;51.992;5.890;2022-07-18T10:03:27;27.70;48.30
55828;DHT22;41758;51.992;5.890;2022-07-18T10:05:54;27.80;47.00
55828;DHT22;41758;51.992;5.890;2022-07-18T10:08:23;27.80;46.20
55828;DHT22;41758;51.992;5.890;2022-07-18T10:10:50;27.80;47.50
55828;DHT22;41758;51.992;5.890;2022-07-18T10:13:17;27.80;46.20
55828;DHT22;41758;51.992;5.890;2022-07-18T10:15:45;27.80;47.20
55828;DHT22;41758;51.992;5.890;2022-07-18T10:18:17;27.70;43.40
55828;DHT22;41758;51.992;5.890;2022-07-18T10:20:46;27.70;40.10
55828;DHT22;41758;51.992;5.890;2022-07-18T10:23:18;27.80;43.20
55828;DHT22;41758;51.992;5.890;2022-07-18T10:26:11;27.90;44.50
55828;DHT22;41758;51.992;5.890;2022-07-18T10:39:18;28.60;42.10
55828;DHT22;41758;51.992;5.890;2022-07-18T10:57:40;29.80;39.40
55828;DHT22;41758;51.992;5.890;2022-07-18T11:00:13;30.10;41.90
55828;DHT22;41758;51.992;5.890;2022-07-18T11:02:41;30.40;41.50
55828;DHT22;41758;51.992;5.890;2022-07-18T11:16:10;33.80;36.70
55828;DHT22;41758;51.992;5.890;2022-07-18T11:21:24;35.40;35.40
55828;DHT22;41758;51.992;5.890;2022-07-18T11:23:52;36.30;34.40
55828;DHT22;41758;51.992;5.890;2022-07-18T11:26:20;37.10;33.90
55828;DHT22;41758;51.992;5.890;2022-07-18T11:28:47;37.80;33.00
55828;DHT22;41758;51.992;5.890;2022-07-18T11:31:16;38.30;30.80
55828;DHT22;41758;51.992;5.890;2022-07-18T11:33:47;38.80;31.10
55828;DHT22;41758;51.992;5.890;2022-07-18T11:36:20;39.30;30.00
55828;DHT22;41758;51.992;5.890;2022-07-18T11:39:05;39.60;29.80
55828;DHT22;41758;51.992;5.890;2022-07-18T11:41:30;39.90;28.50
55828;DHT22;41758;51.992;5.890;2022-07-18T11:43:57;40.20;29.00
55828;DHT22;41758;51.992;5.890;2022-07-18T11:46:25;40.40;29.00
55828;DHT22;41758;51.992;5.890;2022-07-18T11:49:04;40.70;29.00
55828;DHT22;41758;51.992;5.890;2022-07-18T11:51:39;40.80;28.00
55828;DHT22;41758;51.992;5.890;2022-07-18T11:54:06;41.30;27.60
55828;DHT22;41758;51.992;5.890;2022-07-18T11:56:32;41.60;27.30
55828;DHT22;41758;51.992;5.890;2022-07-18T11:58:57;42.00;27.10
55828;DHT22;41758;51.992;5.890;2022-07-18T12:01:32;42.40;26.90
55828;DHT22;41758;51.992;5.890;2022-07-18T12:04:01;42.70;22.30
55828;DHT22;41758;51.992;5.890;2022-07-18T12:06:27;43.10;22.50
55828;DHT22;41758;51.992;5.890;2022-07-18T12:08:55;43.50;23.70
55828;DHT22;41758;51.992;5.890;2022-07-18T12:11:27;43.90;24.70
55828;DHT22;41758;51.992;5.890;2022-07-18T12:13:59;44.10;22.70
55828;DHT22;41758;51.992;5.890;2022-07-18T12:32:27;44.90;23.30
55828;DHT22;41758;51.992;5.890;2022-07-18T12:35:01;44.70;18.90
55828;DHT22;41758;51.992;5.890;2022-07-18T12:37:28;44.80;20.20
55828;DHT22;41758;51.992;5.890;2022-07-18T12:40:00;44.90;20.60
55828;DHT22;41758;51.992;5.890;2022-07-18T12:42:35;44.90;21.30
55828;DHT22;41758;51.992;5.890;2022-07-18T12:45:02;44.70;18.50
55828;DHT22;41758;51.992;5.890;2022-07-18T12:47:30;44.70;20.20
55828;DHT22;41758;51.992;5.890;2022-07-18T12:49:56;44.50;18.90
55828;DHT22;41758;51.992;5.890;2022-07-18T12:52:26;44.60;22.20
55828;DHT22;41758;51.992;5.890;2022-07-18T12:54:54;44.40;23.10
55828;DHT22;41758;51.992;5.890;2022-07-18T12:57:20;44.30;22.90
55828;DHT22;41758;51.992;5.890;2022-07-18T12:59:46;44.10;20.90
55828;DHT22;41758;51.992;5.890;2022-07-18T13:02:13;44.00;22.70
55828;DHT22;41758;51.992;5.890;2022-07-18T13:04:39;43.70;21.60
55828;DHT22;41758;51.992;5.890;2022-07-18T13:07:05;43.60;21.40
55828;DHT22;41758;51.992;5.890;2022-07-18T13:09:31;43.40;21.80
55828;DHT22;41758;51.992;5.890;2022-07-18T13:11:58;43.20;22.00
55828;DHT22;41758;51.992;5.890;2022-07-18T13:14:24;42.90;23.30
55828;DHT22;41758;51.992;5.890;2022-07-18T13:16:50;42.80;24.00
55828;DHT22;41758;51.992;5.890;2022-07-18T13:19:18;42.40;22.50
55828;DHT22;41758;51.992;5.890;2022-07-18T13:21:44;42.20;23.80
55828;DHT22;41758;51.992;5.890;2022-07-18T13:24:11;41.90;22.60
55828;DHT22;41758;51.992;5.890;2022-07-18T13:26:38;41.60;22.50
55828;DHT22;41758;51.992;5.890;2022-07-18T13:29:06;41.30;25.90
55828;DHT22;41758;51.992;5.890;2022-07-18T13:31:32;41.00;23.30
55828;DHT22;41758;51.992;5.890;2022-07-18T13:33:58;40.60;26.90
55828;DHT22;41758;51.992;5.890;2022-07-18T13:36:24;40.30;27.60
55828;DHT22;41758;51.992;5.890;2022-07-18T13:38:50;39.80;26.90
55828;DHT22;41758;51.992;5.890;2022-07-18T13:41:16;39.20;27.70
55828;DHT22;41758;51.992;5.890;2022-07-18T13:43:41;38.60;28.70
55828;DHT22;41758;51.992;5.890;2022-07-18T13:46:09;38.00;30.30
55828;DHT22;41758;51.992;5.890;2022-07-18T13:48:35;37.40;30.80
55828;DHT22;41758;51.992;5.890;2022-07-18T13:51:02;36.90;32.00
55828;DHT22;41758;51.992;5.890;2022-07-18T13:53:28;36.40;32.50
55828;DHT22;41758;51.992;5.890;2022-07-18T13:55:53;35.90;32.10
55828;DHT22;41758;51.992;5.890;2022-07-18T13:58:19;35.50;27.80
55828;DHT22;41758;51.992;5.890;2022-07-18T14:00:45;35.20;32.00
55828;DHT22;41758;51.992;5.890;2022-07-18T14:03:11;34.90;33.90
55828;DHT22;41758;51.992;5.890;2022-07-18T14:05:38;34.70;34.30
55828;DHT22;41758;51.992;5.890;2022-07-18T14:08:05;34.40;35.40
55828;DHT22;41758;51.992;5.890;2022-07-18T14:10:31;34.20;34.60
55828;DHT22;41758;51.992;5.890;2022-07-18T14:12:56;33.90;32.80
55828;DHT22;41758;51.992;5.890;2022-07-18T14:15:22;33.80;34.80
55828;DHT22;41758;51.992;5.890;2022-07-18T14:17:48;33.60;32.60
55828;DHT22;41758;51.992;5.890;2022-07-18T14:20:14;33.40;33.60
55828;DHT22;41758;51.992;5.890;2022-07-18T14:22:41;33.30;29.80
55828;DHT22;41758;51.992;5.890;2022-07-18T14:25:09;33.20;31.10
55828;DHT22;41758;51.992;5.890;2022-07-18T14:27:35;33.10;34.80
55828;DHT22;41758;51.992;5.890;2022-07-18T14:30:02;33.00;33.70
55828;DHT22;41758;51.992;5.890;2022-07-18T14:32:28;32.90;33.90
55828;DHT22;41758;51.992;5.890;2022-07-18T14:34:54;32.80;31.10
55828;DHT22;41758;51.992;5.890;2022-07-18T14:37:20;32.80;35.10
55828;DHT22;41758;51.992;5.890;2022-07-18T14:39:45;32.70;36.70
55828;DHT22;41758;51.992;5.890;2022-07-18T14:42:11;32.60;35.90
55828;DHT22;41758;51.992;5.890;2022-07-18T14:44:38;32.40;33.60
55828;DHT22;41758;51.992;5.890;2022-07-18T14:47:06;32.40;32.70
55828;DHT22;41758;51.992;5.890;2022-07-18T14:49:38;32.30;32.40
55828;DHT22;41758;51.992;5.890;2022-07-18T14:52:07;32.30;34.80
55828;DHT22;41758;51.992;5.890;2022-07-18T14:54:35;32.20;34.20
55828;DHT22;41758;51.992;5.890;2022-07-18T14:57:01;32.20;37.30
55828;DHT22;41758;51.992;5.890;2022-07-18T14:59:35;32.20;37.50
55828;DHT22;41758;51.992;5.890;2022-07-18T15:02:06;32.10;37.10
55828;DHT22;41758;51.992;5.890;2022-07-18T15:04:33;32.10;37.20
55828;DHT22;41758;51.992;5.890;2022-07-18T15:07:02;32.00;35.00
55828;DHT22;41758;51.992;5.890;2022-07-18T15:09:28;31.90;34.50
55828;DHT22;41758;51.992;5.890;2022-07-18T15:11:54;31.90;37.00
55828;DHT22;41758;51.992;5.890;2022-07-18T15:14:22;31.90;38.40
55828;DHT22;41758;51.992;5.890;2022-07-18T15:16:47;31.80;37.50
55828;DHT22;41758;51.992;5.890;2022-07-18T15:19:13;31.80;34.50
55828;DHT22;41758;51.992;5.890;2022-07-18T15:21:39;31.70;35.80
55828;DHT22;41758;51.992;5.890;2022-07-18T15:24:07;31.70;38.10
55828;DHT22;41758;51.992;5.890;2022-07-18T15:26:33;31.70;39.30
55828;DHT22;41758;51.992;5.890;2022-07-18T15:29:08;31.60;37.90
55828;DHT22;41758;51.992;5.890;2022-07-18T15:31:51;31.60;38.20
55828;DHT22;41758;51.992;5.890;2022-07-18T15:34:17;31.60;39.10
55828;DHT22;41758;51.992;5.890;2022-07-18T15:36:49;31.50;39.60
55828;DHT22;41758;51.992;5.890;2022-07-18T15:39:22;31.50;38.20
55828;DHT22;41758;51.992;5.890;2022-07-18T15:41:48;31.40;36.30
55828;DHT22;41758;51.992;5.890;2022-07-18T15:44:14;31.40;39.60
55828;DHT22;41758;51.992;5.890;2022-07-18T15:46:39;31.40;37.40
55828;DHT22;41758;51.992;5.890;2022-07-18T15:49:05;31.40;38.50
55828;DHT22;41758;51.992;5.890;2022-07-18T15:51:31;31.40;35.00
55828;DHT22;41758;51.992;5.890;2022-07-18T15:53:57;31.40;38.70
55828;DHT22;41758;51.992;5.890;2022-07-18T15:56:22;31.30;34.80
55828;DHT22;41758;51.992;5.890;2022-07-18T15:58:48;31.40;35.50
55828;DHT22;41758;51.992;5.890;2022-07-18T16:01:14;31.40;36.50
55828;DHT22;41758;51.992;5.890;2022-07-18T16:03:39;31.40;34.40
55828;DHT22;41758;51.992;5.890;2022-07-18T16:06:05;31.40;37.80
55828;DHT22;41758;51.992;5.890;2022-07-18T16:08:31;31.40;39.50
55828;DHT22;41758;51.992;5.890;2022-07-18T16:10:56;31.30;40.60
55828;DHT22;41758;51.992;5.890;2022-07-18T16:13:22;31.30;40.90
55828;DHT22;41758;51.992;5.890;2022-07-18T16:15:48;31.20;36.50
55828;DHT22;41758;51.992;5.890;2022-07-18T16:18:14;31.20;35.30
55828;DHT22;41758;51.992;5.890;2022-07-18T16:20:40;31.20;35.50
55828;DHT22;41758;51.992;5.890;2022-07-18T16:23:07;31.20;36.00
55828;DHT22;41758;51.992;5.890;2022-07-18T16:25:33;31.30;38.00
55828;DHT22;41758;51.992;5.890;2022-07-18T16:27:59;31.20;38.10
55828;DHT22;41758;51.992;5.890;2022-07-18T16:30:25;31.20;40.30